Time;durP1;ratioP1;P1;durP2;ratioP2;P2;SDS_P1;SDS_P2;PMS_P1;PMS_P2;Temp;Humidity;BMP_temperature;BMP_pressure;BME280_temperature;BME280_humidity;BME280_pressure;Samples;Min_cycle;Max_cycle;Signal;HPM_P1;HPM_P2
2022/01/23 00:00:16;;;;;;;13.10;5.80;;;;;;;-0.66;67.03;101240.14;104895;1287;24301;-79
2022/01/23 00:02:49;;;;;;;13.60;5.30;;;;;;;-0.67;66.89;101239.07;105092;1279;25338;-82
2022/01/23 00:05:20;;;;;;;9.30;4.40;;;;;;;-0.70;67.01;101245.46;105756;1279;22660;-81
2022/01/23 00:07:47;;;;;;;11.70;4.20;;;;;;;-0.79;67.08;101241.27;105473;1280;24299;-80
2022/01/23 00:10:15;;;;;;;11.10;4.40;;;;;;;-0.79;67.24;101248.19;105578;1279;25334;-80
2022/01/23 00:12:50;;;;;;;8.40;3.40;;;;;;;-0.78;67.18;101250.09;105547;1276;22554;-79
2022/01/23 00:18:04;;;;;;;12.00;5.40;;;;;;;-0.78;67.38;101239.71;106129;1274;24250;-80
2022/01/23 00:20:32;;;;;;;8.90;4.30;;;;;;;-0.78;67.41;101239.08;106126;1275;23961;-80
2022/01/23 00:23:11;;;;;;;14.70;5.70;;;;;;;-0.85;67.46;101244.72;105667;1281;22557;-78
2022/01/23 00:30:20;;;;;;;10.30;5.80;;;;;;;-0.95;67.86;101244.57;105900;1279;22563;-80
2022/01/23 00:31:26;;;;;;;9.90;4.20;;;;;;;-0.95;67.98;101235.22;105468;1284;22527;-79
2022/01/23 00:33:54;;;;;;;9.70;4.60;;;;;;;-0.95;68.05;101241.81;104906;1285;278243;-79
2022/01/23 00:36:26;;;;;;;11.10;5.30;;;;;;;-0.94;68.16;101241.67;104941;1284;25267;-81
2022/01/23 00:38:53;;;;;;;11.90;5.00;;;;;;;-0.94;68.17;101236.30;105352;1284;22551;-80
2022/01/23 00:41:20;;;;;;;10.00;5.10;;;;;;;-0.97;68.22;101237.89;105145;1287;22550;-81
2022/01/23 00:43:49;;;;;;;12.00;5.10;;;;;;;-1.02;68.55;101238.21;105217;1285;22777;-84
2022/01/23 00:51:26;;;;;;;9.90;4.80;;;;;;;-0.99;68.67;101245.56;105423;1284;22603;-79
2022/01/23 00:53:59;;;;;;;18.90;7.90;;;;;;;-1.00;68.85;101245.38;105582;1282;22509;-80
2022/01/23 00:56:26;;;;;;;17.10;7.40;;;;;;;-0.97;68.86;101246.36;105731;1279;22796;-79
2022/01/23 00:58:54;;;;;;;20.90;9.10;;;;;;;-0.97;68.94;101249.66;105707;1284;22623;-80
2022/01/23 01:01:24;;;;;;;19.90;8.00;;;;;;;-0.96;68.95;101250.23;105791;1281;22619;-80
2022/01/23 01:03:52;;;;;;;17.30;7.00;;;;;;;-0.95;68.92;101249.08;105805;1281;24230;-80
2022/01/23 01:06:20;;;;;;;23.50;8.80;;;;;;;-0.98;69.09;101249.94;106078;1284;22546;-84
2022/01/23 01:08:50;;;;;;;28.40;9.00;;;;;;;-1.01;69.10;101249.80;106828;1281;23073;-85
2022/01/23 01:31:00;;;;;;;20.20;7.90;;;;;;;-0.96;69.80;101258.52;109082;1278;22603;-86
2022/01/23 01:36:22;;;;;;;19.40;8.00;;;;;;;-0.94;69.88;101263.83;109524;1273;22613;-87
2022/01/23 01:38:52;;;;;;;18.50;7.80;;;;;;;-0.93;69.90;101266.11;108908;1275;22545;-77
2022/01/23 01:41:22;;;;;;;18.10;6.40;;;;;;;-0.92;69.98;101269.79;108003;1274;25340;-79
2022/01/23 01:43:52;;;;;;;18.00;5.10;;;;;;;-0.94;69.96;101266.92;107878;1282;22508;-78
2022/01/23 01:46:34;;;;;;;15.40;6.00;;;;;;;-0.93;69.98;101264.05;107862;1279;22573;-78
2022/01/23 01:49:01;;;;;;;17.10;7.40;;;;;;;-0.96;70.02;101267.69;108283;1281;22592;-85
2022/01/23 01:51:31;;;;;;;21.00;8.30;;;;;;;-0.97;70.30;101262.64;108022;1281;24135;-79
2022/01/23 01:54:14;;;;;;;21.00;9.30;;;;;;;-0.96;70.34;101267.88;108165;1279;25330;-80
2022/01/23 01:56:50;;;;;;;30.80;9.90;;;;;;;-0.89;70.28;101270.80;107534;1287;22777;-80
2022/01/23 01:59:45;;;;;;;27.00;10.60;;;;;;;-0.89;70.24;101267.02;107700;1287;22543;-80
2022/01/23 02:10:48;;;;;;;31.70;10.20;;;;;;;-0.85;70.15;101266.34;105516;1287;24474;-80
2022/01/23 02:13:21;;;;;;;19.50;8.20;;;;;;;-0.83;70.18;101266.12;105479;1284;25408;-80
2022/01/23 02:55:11;;;;;;;14.40;6.00;;;;;;;-0.89;70.46;101298.33;105384;1284;24294;-83
2022/01/23 02:57:21;;;;;;;13.00;5.80;;;;;;;-0.90;70.61;101299.17;105436;1284;24338;-83
2022/01/23 02:59:50;;;;;;;14.50;6.10;;;;;;;-0.89;70.53;101296.95;105222;1285;22790;-81
2022/01/23 03:02:45;;;;;;;10.80;5.10;;;;;;;-0.80;70.58;101301.05;105016;1284;23068;-81
2022/01/23 03:05:38;;;;;;;12.10;4.60;;;;;;;-0.74;70.46;101305.16;105193;1282;25514;-81
2022/01/23 03:08:25;;;;;;;6.20;3.50;;;;;;;-0.73;70.47;101306.90;105811;1278;25246;-80
2022/01/23 03:11:06;;;;;;;10.00;4.00;;;;;;;-0.71;70.29;101308.73;105914;1278;25532;-82
2022/01/23 03:13:56;;;;;;;9.10;4.60;;;;;;;-0.80;70.28;101310.20;106133;1274;22551;-83
2022/01/23 03:24:08;;;;;;;10.30;4.30;;;;;;;-0.85;70.49;101317.73;106209;1274;25426;-80
2022/01/23 03:28:19;;;;;;;9.80;3.70;;;;;;;-0.81;70.52;101336.27;106285;1274;24298;-82
2022/01/23 03:30:21;;;;;;;16.30;4.50;;;;;;;-0.79;70.49;101335.33;106052;1275;23803;-84
2022/01/23 03:32:50;;;;;;;7.00;3.80;;;;;;;-0.80;70.61;101335.66;106130;1275;22572;-80
2022/01/23 03:35:19;;;;;;;9.10;3.80;;;;;;;-0.71;70.69;101342.68;106030;1275;22563;-79
2022/01/23 03:37:48;;;;;;;8.60;3.90;;;;;;;-0.66;70.46;101351.23;106117;1274;24374;-80
2022/01/23 03:40:16;;;;;;;6.50;3.60;;;;;;;-0.68;70.43;101351.61;106107;1274;23282;-83
2022/01/23 03:42:47;;;;;;;10.10;4.30;;;;;;;-0.68;70.35;101355.13;106192;1274;25251;-81
2022/01/23 03:50:46;;;;;;;5.50;3.00;;;;;;;-0.63;70.47;101365.02;106115;1275;26680;-79
2022/01/23 03:53:21;;;;;;;7.50;3.90;;;;;;;-0.58;70.35;101370.98;105922;1275;25394;-79
2022/01/23 03:55:50;;;;;;;8.10;4.00;;;;;;;-0.55;70.21;101373.92;106569;1274;26638;-77
2022/01/23 03:58:18;;;;;;;7.50;4.10;;;;;;;-0.53;70.12;101382.37;105351;1281;25110;-77
2022/01/23 04:00:45;;;;;;;8.80;4.60;;;;;;;-0.50;70.20;101383.88;105606;1280;25370;-77
2022/01/23 04:03:14;;;;;;;7.40;3.80;;;;;;;-0.45;70.24;101391.03;105004;1287;23939;-76
2022/01/23 04:05:42;;;;;;;10.80;4.20;;;;;;;-0.40;70.25;101391.31;104916;1287;22627;-82
2022/01/23 04:08:10;;;;;;;11.00;4.10;;;;;;;-0.31;70.22;101390.23;105334;1285;25521;-84
2022/01/23 04:10:39;;;;;;;7.90;3.70;;;;;;;-0.23;69.97;101387.17;105254;1287;22649;-79
2022/01/23 04:13:19;;;;;;;9.10;4.00;;;;;;;-0.29;69.87;101388.79;105157;1284;25270;-82
2022/01/23 04:45:39;;;;;;;9.70;4.50;;;;;;;-0.25;69.70;101410.06;105253;1284;23843;-79
2022/01/23 05:04:46;;;;;;;7.60;4.40;;;;;;;-0.32;69.69;101405.56;107119;1273;22591;-87
2022/01/23 05:07:34;;;;;;;9.80;4.70;;;;;;;-0.41;69.66;101405.47;106236;1279;24303;-83
2022/01/23 05:10:39;;;;;;;9.90;4.10;;;;;;;-0.45;69.88;101408.88;105634;1284;24286;-88
2022/01/23 05:13:28;;;;;;;10.00;4.90;;;;;;;-0.46;70.00;101421.61;106174;1284;23944;-87
2022/01/23 05:15:56;;;;;;;9.90;4.90;;;;;;;-0.40;70.06;101435.63;105708;1287;22724;-79
2022/01/23 05:18:24;;;;;;;9.30;4.70;;;;;;;-0.42;69.93;101433.61;105536;1284;23264;-81
2022/01/23 05:21:01;;;;;;;10.00;4.50;;;;;;;-0.40;70.05;101436.84;105747;1285;22499;-81
2022/01/23 05:23:30;;;;;;;12.70;4.50;;;;;;;-0.41;69.98;101439.55;105632;1285;26850;-82
2022/01/23 05:25:57;;;;;;;10.60;4.50;;;;;;;-0.50;69.87;101440.45;106418;1281;22639;-82
2022/01/23 05:28:25;;;;;;;14.00;5.60;;;;;;;-0.55;70.09;101450.63;106802;1282;22626;-84
2022/01/23 05:30:53;;;;;;;10.10;5.30;;;;;;;-0.60;70.01;101454.66;106621;1282;22791;-85
2022/01/23 05:33:20;;;;;;;7.40;3.80;;;;;;;-0.59;70.34;101456.11;105905;1281;23559;-82
2022/01/23 05:35:47;;;;;;;10.70;5.40;;;;;;;-0.54;70.44;101453.27;105753;1281;22715;-83
2022/01/23 05:38:15;;;;;;;9.50;4.60;;;;;;;-0.44;70.56;101452.20;106190;1281;25196;-83
2022/01/23 05:40:43;;;;;;;10.40;5.50;;;;;;;-0.44;70.20;101443.75;105828;1281;22781;-78
2022/01/23 05:43:11;;;;;;;7.50;4.00;;;;;;;-0.46;70.13;101451.04;106122;1281;22542;-83
2022/01/23 05:45:41;;;;;;;8.10;4.90;;;;;;;-0.50;70.26;101450.86;105913;1274;24535;-77
2022/01/23 05:48:09;;;;;;;8.60;5.00;;;;;;;-0.48;70.44;101453.54;106288;1274;22699;-80
2022/01/23 05:50:42;;;;;;;7.90;4.30;;;;;;;-0.42;70.60;101456.13;106471;1273;22584;-79
2022/01/23 05:53:28;;;;;;;13.20;5.50;;;;;;;-0.32;70.56;101458.70;105998;1273;26507;-76
2022/01/23 05:56:16;;;;;;;10.60;4.40;;;;;;;-0.34;70.18;101460.20;106212;1274;22572;-77
2022/01/23 05:59:13;;;;;;;9.30;4.80;;;;;;;-0.45;70.19;101468.42;106191;1273;23958;-80
2022/01/23 06:01:46;;;;;;;6.00;4.40;;;;;;;-0.47;70.54;101472.98;106166;1273;25450;-80
2022/01/23 06:04:19;;;;;;;14.60;5.40;;;;;;;-0.40;70.59;101477.02;105990;1273;25433;-77
2022/01/23 06:06:58;;;;;;;10.10;5.00;;;;;;;-0.31;70.65;101485.58;106148;1273;24386;-78
2022/01/23 06:09:26;;;;;;;8.80;4.60;;;;;;;-0.28;70.49;101480.38;106194;1273;24775;-83
2022/01/23 06:11:53;;;;;;;7.50;4.80;;;;;;;-0.24;70.54;101488.75;106122;1274;24220;-78
2022/01/23 06:14:20;;;;;;;11.10;5.30;;;;;;;-0.16;70.55;101490.36;106136;1274;22624;-81
2022/01/23 06:16:48;;;;;;;10.30;4.40;;;;;;;-0.09;70.40;101495.90;106236;1273;22573;-76
2022/01/23 06:19:36;;;;;;;8.20;4.60;;;;;;;-0.04;70.42;101494.81;106286;1274;24291;-82
2022/01/23 06:22:29;;;;;;;8.40;4.00;;;;;;;-0.01;70.20;101494.60;105856;1273;23194;-80
2022/01/23 06:25:33;;;;;;;8.90;4.50;;;;;;;0.03;70.16;101501.91;105894;1279;22603;-85
2022/01/23 06:28:36;;;;;;;9.30;4.00;;;;;;;0.06;70.11;101495.98;105931;1279;22911;-79
2022/01/23 06:31:03;;;;;;;9.00;4.40;;;;;;;0.04;69.89;101502.81;105528;1280;22631;-79
2022/01/23 06:33:31;;;;;;;8.00;4.00;;;;;;;0.07;70.01;101513.89;105731;1279;23637;-80
2022/01/23 06:35:58;;;;;;;7.60;3.90;;;;;;;0.10;69.88;101511.47;105588;1280;22559;-80
2022/01/23 06:38:26;;;;;;;8.90;3.40;;;;;;;0.13;69.71;101507.45;105757;1279;25431;-78
2022/01/23 06:40:53;;;;;;;9.20;4.30;;;;;;;0.12;69.71;101514.16;105491;1281;26644;-81
2022/01/23 06:43:43;;;;;;;7.30;3.80;;;;;;;0.13;69.47;101523.55;106051;1273;25400;-79
2022/01/23 06:46:16;;;;;;;5.70;3.40;;;;;;;0.12;69.79;101532.33;106200;1273;22563;-78
2022/01/23 06:48:43;;;;;;;5.70;3.90;;;;;;;0.20;69.83;101532.91;105425;1281;22695;-79
2022/01/23 06:51:10;;;;;;;6.40;3.80;;;;;;;0.26;69.65;101541.00;105501;1280;22541;-80
2022/01/23 06:53:38;;;;;;;7.30;3.40;;;;;;;0.29;69.32;101545.83;105464;1279;25463;-77
2022/01/23 06:56:05;;;;;;;7.80;4.70;;;;;;;0.25;69.05;101553.10;105653;1280;25363;-78
2022/01/23 06:58:32;;;;;;;7.60;4.40;;;;;;;0.24;69.00;101556.67;104712;1287;23485;-81
2022/01/23 07:01:01;;;;;;;7.20;4.20;;;;;;;0.27;69.24;101563.05;104670;1288;22681;-79
2022/01/23 07:03:46;;;;;;;7.00;3.50;;;;;;;0.37;69.24;101571.52;104956;1287;25537;-81
2022/01/23 07:06:31;;;;;;;7.20;3.50;;;;;;;0.40;69.09;101576.06;104702;1287;22557;-84
2022/01/23 07:09:16;;;;;;;10.20;3.70;;;;;;;0.42;68.86;101583.27;104762;1290;25418;-80
2022/01/23 07:12:03;;;;;;;5.60;3.10;;;;;;;0.45;68.60;101586.36;104959;1287;22655;-80
2022/01/23 07:14:49;;;;;;;8.80;3.80;;;;;;;0.46;68.57;101593.54;105266;1281;22786;-79
2022/01/23 07:17:44;;;;;;;7.80;4.00;;;;;;;0.50;68.54;101597.19;105663;1276;25504;-76
2022/01/23 07:20:29;;;;;;;5.00;3.10;;;;;;;0.54;68.46;101596.48;106063;1276;25417;-78
2022/01/23 07:23:04;;;;;;;5.00;2.80;;;;;;;0.56;68.14;101595.40;105986;1276;25267;-80
2022/01/23 07:25:32;;;;;;;6.60;3.80;;;;;;;0.58;68.24;101603.65;106027;1276;22600;-84
2022/01/23 07:28:01;;;;;;;5.30;3.30;;;;;;;0.62;68.00;101603.67;106037;1276;24414;-78
2022/01/23 07:32:56;;;;;;;5.20;3.90;;;;;;;0.67;67.72;101604.14;106231;1276;22543;-78
2022/01/23 07:35:23;;;;;;;7.40;2.90;;;;;;;0.69;67.67;101607.52;105944;1276;24126;-76
2022/01/23 07:37:50;;;;;;;6.70;3.10;;;;;;;0.72;67.54;101608.69;106585;1274;22492;-83
2022/01/23 07:40:20;;;;;;;6.20;3.70;;;;;;;0.75;67.35;101611.63;106590;1274;22730;-82
2022/01/23 07:42:51;;;;;;;4.90;3.40;;;;;;;0.75;67.39;101621.69;106405;1274;22560;-82
2022/01/23 07:45:53;;;;;;;4.20;2.70;;;;;;;0.81;66.94;101624.20;106056;1281;24205;-84
2022/01/23 07:48:49;;;;;;;5.70;3.10;;;;;;;0.78;66.70;101626.82;105826;1281;24229;-81
2022/01/23 07:51:39;;;;;;;5.80;2.90;;;;;;;0.81;66.49;101638.45;105748;1281;22881;-83
2022/01/23 07:54:25;;;;;;;8.30;3.30;;;;;;;0.88;66.11;101637.25;105756;1282;26623;-81
2022/01/23 07:57:12;;;;;;;5.20;2.50;;;;;;;0.93;65.49;101639.42;105523;1282;22550;-81
2022/01/23 07:59:57;;;;;;;3.60;2.40;;;;;;;1.01;65.44;101653.33;105445;1281;22571;-81
2022/01/23 08:02:42;;;;;;;3.30;2.70;;;;;;;1.06;64.71;101663.98;105488;1281;24519;-82
2022/01/23 08:09:36;;;;;;;2.60;1.90;;;;;;;1.17;63.63;101679.09;105497;1287;25554;-83
2022/01/23 08:12:09;;;;;;;2.90;2.00;;;;;;;1.15;63.22;101680.41;105387;1287;22568;-83
2022/01/23 08:14:37;;;;;;;3.20;1.90;;;;;;;1.12;62.93;101679.19;105435;1287;22655;-84
2022/01/23 08:17:06;;;;;;;3.80;2.40;;;;;;;1.11;62.96;101683.67;105133;1287;26874;-84
2022/01/23 08:19:33;;;;;;;3.70;2.30;;;;;;;1.15;62.81;101685.77;105866;1283;22619;-82
2022/01/23 08:22:01;;;;;;;5.50;2.50;;;;;;;1.18;62.67;101680.20;106675;1281;22664;-83
2022/01/23 08:24:28;;;;;;;5.90;2.90;;;;;;;1.17;62.43;101678.62;106367;1281;22689;-84
2022/01/23 08:26:56;;;;;;;2.90;2.10;;;;;;;1.20;62.69;101680.29;106085;1287;22732;-84
2022/01/23 08:29:23;;;;;;;4.20;2.90;;;;;;;1.30;62.57;101682.51;105165;1288;22561;-83
2022/01/23 08:31:51;;;;;;;3.30;2.40;;;;;;;1.34;62.53;101682.02;105238;1288;22585;-84
2022/01/23 08:34:18;;;;;;;4.80;2.70;;;;;;;1.38;62.17;101689.13;105214;1287;24540;-85
2022/01/23 08:36:50;;;;;;;4.80;2.70;;;;;;;1.49;62.17;101698.52;105004;1287;22946;-84
2022/01/23 08:39:21;;;;;;;4.30;2.30;;;;;;;1.60;62.09;101709.32;105137;1287;22640;-82
2022/01/23 08:41:49;;;;;;;3.60;2.10;;;;;;;1.68;61.68;101708.81;105248;1287;24280;-80
2022/01/23 08:44:21;;;;;;;3.90;2.40;;;;;;;1.77;61.40;101716.72;105603;1282;24400;-83
2022/01/23 08:46:49;;;;;;;2.70;2.10;;;;;;;1.90;61.23;101712.33;105403;1282;25383;-79
2022/01/23 08:49:18;;;;;;;3.30;2.10;;;;;;;2.05;60.58;101712.52;106304;1281;22710;-82
2022/01/23 08:51:48;;;;;;;4.30;2.10;;;;;;;2.13;59.87;101718.25;106001;1276;24221;-84
2022/01/23 08:54:16;;;;;;;2.20;1.80;;;;;;;2.21;59.69;101721.75;106188;1274;24374;-80
2022/01/23 08:56:44;;;;;;;2.70;1.90;;;;;;;2.28;59.42;101722.77;106316;1275;22732;-84
2022/01/23 08:59:13;;;;;;;2.10;1.90;;;;;;;2.36;59.11;101728.36;105638;1281;25469;-78
2022/01/23 09:01:40;;;;;;;4.10;2.00;;;;;;;2.46;58.76;101735.09;105137;1287;25595;-82
2022/01/23 09:04:09;;;;;;;3.20;2.10;;;;;;;2.61;58.70;101738.19;104965;1285;25650;-83
2022/01/23 09:06:37;;;;;;;3.00;2.20;;;;;;;2.75;58.35;101742.45;104981;1288;24339;-85
2022/01/23 09:09:07;;;;;;;3.90;2.50;;;;;;;2.83;58.23;101748.21;104890;1287;23962;-82
2022/01/23 09:11:40;;;;;;;3.00;2.30;;;;;;;2.78;57.39;101750.41;104915;1288;24017;-85
2022/01/23 09:14:15;;;;;;;3.80;2.40;;;;;;;2.82;57.57;101747.47;105007;1288;22719;-81
2022/01/23 09:16:44;;;;;;;4.30;2.60;;;;;;;2.90;57.55;101744.86;104998;1290;23004;-82
2022/01/23 09:19:11;;;;;;;4.30;2.60;;;;;;;2.94;57.38;101751.11;105117;1285;22556;-81
2022/01/23 09:21:39;;;;;;;4.40;3.00;;;;;;;3.11;57.33;101751.14;105216;1287;24440;-85
2022/01/23 09:24:08;;;;;;;4.00;2.20;;;;;;;3.33;57.06;101747.55;105686;1281;22588;-81
2022/01/23 09:26:37;;;;;;;3.10;2.30;;;;;;;3.40;56.51;101754.13;106120;1280;22640;-84
2022/01/23 09:29:23;;;;;;;3.20;2.50;;;;;;;3.35;56.26;101760.17;105561;1285;22929;-88
2022/01/23 09:31:50;;;;;;;3.30;2.20;;;;;;;3.45;56.15;101762.33;105634;1281;22827;-82
2022/01/23 09:35:05;;;;;;;;;;;;;;;;;;;;;
2022/01/23 09:37:32;;;;;;;4.40;2.50;;;;;;;3.71;55.71;101771.42;105973;1281;22730;-83
2022/01/23 09:40:00;;;;;;;4.20;2.40;;;;;;;3.78;55.67;101771.52;105816;1281;22641;-81
2022/01/23 09:42:34;;;;;;;5.30;2.70;;;;;;;3.83;55.10;101765.98;105957;1280;22775;-81
2022/01/23 09:45:09;;;;;;;3.10;2.50;;;;;;;3.85;54.88;101764.15;105810;1281;25390;-83
2022/01/23 09:47:37;;;;;;;5.20;2.70;;;;;;;3.91;54.73;101761.77;106065;1276;22993;-83
2022/01/23 09:50:06;;;;;;;3.60;2.70;;;;;;;4.05;54.46;101760.60;106206;1276;24202;-83
2022/01/23 09:52:35;;;;;;;4.20;2.40;;;;;;;4.20;54.31;101754.17;106206;1276;25374;-81
2022/01/23 09:55:10;;;;;;;4.30;2.50;;;;;;;4.41;53.66;101760.04;105935;1276;22550;-83
2022/01/23 09:57:58;;;;;;;;;;;;;;;4.55;53.30;101756.72;106711;1276;25363;-83
2022/01/23 10:00:27;;;;;;;;;;;;;;;4.81;53.23;101751.23;106488;1276;24301;-84
2022/01/23 10:02:55;;;;;;;5.90;2.50;;;;;;;4.96;52.45;101755.06;106108;1276;24493;-81
2022/01/23 10:05:23;;;;;;;3.60;2.30;;;;;;;5.17;52.47;101754.07;106455;1275;25384;-81
2022/01/23 10:07:53;;;;;;;3.40;2.40;;;;;;;5.39;51.99;101747.31;106168;1275;22564;-80
2022/01/23 10:10:26;;;;;;;3.90;2.30;;;;;;;5.58;51.54;101740.40;105913;1277;26520;-80
2022/01/23 10:12:55;;;;;;;3.90;3.00;;;;;;;5.71;50.76;101740.14;105590;1281;25264;-81
2022/01/23 10:15:25;;;;;;;3.10;2.60;;;;;;;5.81;50.19;101741.16;105371;1282;22551;-77
2022/01/23 10:17:55;;;;;;;4.80;3.00;;;;;;;5.92;49.62;101741.15;105585;1281;24352;-77
2022/01/23 10:20:23;;;;;;;2.70;2.20;;;;;;;6.01;49.47;101733.61;105705;1283;23942;-80
2022/01/23 10:22:54;;;;;;;3.90;2.50;;;;;;;6.11;49.22;101739.16;105640;1281;22661;-83
2022/01/23 10:25:25;;;;;;;4.20;2.30;;;;;;;6.26;48.76;101743.27;105761;1281;22956;-80
2022/01/23 10:28:21;;;;;;;3.40;2.30;;;;;;;6.34;48.30;101747.20;105996;1282;25537;-81
2022/01/23 10:30:52;;;;;;;4.40;2.70;;;;;;;6.36;47.90;101750.22;106717;1274;25404;-80
2022/01/23 10:33:37;;;;;;;3.00;2.20;;;;;;;6.50;47.77;101755.37;107503;1273;22908;-83
2022/01/23 10:36:19;;;;;;;7.90;4.60;;;;;;;6.68;47.24;101749.95;108051;1273;25401;-84
2022/01/23 10:38:54;;;;;;;9.40;5.70;;;;;;;6.78;46.82;101754.95;107052;1281;24772;-85
2022/01/23 10:49:59;;;;;;;5.80;3.10;;;;;;;7.24;45.68;101754.61;105714;1282;24413;-82
2022/01/23 10:52:57;;;;;;;8.30;4.10;;;;;;;7.33;45.42;101752.59;105760;1281;22571;-83
2022/01/23 10:55:30;;;;;;;7.10;3.20;;;;;;;7.40;45.22;101749.24;106110;1279;23380;-85
2022/01/23 10:58:02;;;;;;;7.10;3.60;;;;;;;7.47;45.24;101745.22;106127;1276;23347;-78
2022/01/23 11:00:33;;;;;;;6.30;3.40;;;;;;;7.50;44.66;101743.20;106376;1276;22698;-85
2022/01/23 11:03:15;;;;;;;7.80;3.60;;;;;;;7.40;44.45;101738.75;106095;1275;23046;-84
2022/01/23 11:05:44;;;;;;;7.60;3.80;;;;;;;7.54;44.82;101749.45;106069;1274;24212;-83
2022/01/23 11:08:25;;;;;;;5.30;3.30;;;;;;;7.67;44.31;101750.80;105749;1281;22541;-84
2022/01/23 11:11:03;;;;;;;5.90;3.10;;;;;;;7.72;44.15;101752.67;105512;1282;24337;-83
2022/01/23 11:19:30;;;;;;;6.30;3.20;;;;;;;8.05;43.41;101748.72;105933;1279;22540;-83
2022/01/23 11:21:59;;;;;;;5.50;3.60;;;;;;;8.11;43.07;101750.42;105851;1279;23539;-81
2022/01/23 11:24:39;;;;;;;6.40;3.50;;;;;;;8.21;42.90;101757.51;105796;1279;22725;-82
2022/01/23 11:27:08;;;;;;;5.10;3.20;;;;;;;8.37;42.50;101757.87;105538;1279;22547;-82
2022/01/23 11:29:36;;;;;;;6.20;3.30;;;;;;;8.47;42.49;101762.47;105911;1279;22577;-80
2022/01/23 11:32:05;;;;;;;7.20;3.20;;;;;;;8.53;42.19;101761.35;105957;1279;22560;-84
2022/01/23 11:34:33;;;;;;;4.30;3.20;;;;;;;8.52;42.08;101768.02;105825;1281;25383;-78
2022/01/23 11:37:01;;;;;;;5.10;3.40;;;;;;;8.62;41.97;101766.30;106023;1279;25444;-80
2022/01/23 11:39:41;;;;;;;8.20;3.40;;;;;;;8.73;41.83;101770.21;105668;1281;24286;-84
2022/01/23 11:50:44;;;;;;;4.80;3.40;;;;;;;8.75;40.56;101781.17;107469;1274;23909;-83
2022/01/23 11:56:41;;;;;;;5.50;3.50;;;;;;;8.90;40.56;101785.50;109077;1274;22629;-82
2022/01/23 11:59:36;;;;;;;5.90;3.50;;;;;;;8.92;40.12;101787.30;108408;1276;22555;-82
2022/01/23 12:02:36;;;;;;;5.80;3.80;;;;;;;8.88;40.25;101782.83;108311;1276;22588;-84
2022/01/23 12:05:20;;;;;;;7.60;3.50;;;;;;;8.84;39.18;101779.06;108195;1279;22612;-84
2022/01/23 12:08:53;;;;;;;4.80;3.60;;;;;;;8.66;39.61;101779.58;108508;1279;24171;-83
2022/01/23 12:12:03;;;;;;;5.00;3.40;;;;;;;9.32;39.42;101779.81;107837;1279;22514;-83
2022/01/23 12:17:09;;;;;;;5.80;3.00;;;;;;;10.74;38.44;101766.85;107318;1280;23014;-86
2022/01/23 12:19:48;;;;;;;7.30;3.60;;;;;;;11.19;37.52;101772.12;106102;1285;25275;-79
2022/01/23 12:22:36;;;;;;;8.10;3.40;;;;;;;11.20;37.27;101779.72;105541;1279;25256;-80
2022/01/23 12:25:18;;;;;;;8.50;3.60;;;;;;;11.17;37.10;101786.20;105742;1279;22691;-82
2022/01/23 12:27:46;;;;;;;6.90;3.50;;;;;;;10.96;36.92;101792.67;105534;1279;24170;-83
2022/01/23 12:30:52;;;;;;;5.10;3.60;;;;;;;10.57;36.56;101795.17;105946;1279;23962;-79
2022/01/23 12:34:01;;;;;;;9.70;4.10;;;;;;;10.26;36.59;101799.81;105322;1284;241423;-82
2022/01/23 12:36:34;;;;;;;6.60;4.30;;;;;;;10.13;36.80;101803.14;104807;1291;22703;-82
2022/01/23 12:39:07;;;;;;;6.60;4.40;;;;;;;10.14;36.85;101812.14;105034;1290;23971;-82
2022/01/23 12:42:04;;;;;;;6.40;4.00;;;;;;;10.11;36.96;101817.37;104721;1293;23980;-83
2022/01/23 12:44:38;;;;;;;8.20;3.80;;;;;;;10.14;36.86;101818.83;104755;1287;22595;-81
2022/01/23 12:50:46;;;;;;;7.60;4.00;;;;;;;10.00;36.69;101825.81;104867;1285;22814;-83
2022/01/23 12:53:13;;;;;;;6.10;4.00;;;;;;;9.93;36.74;101830.64;105655;1282;22569;-79
2022/01/23 12:56:07;;;;;;;8.70;4.50;;;;;;;9.89;36.58;101835.33;105197;1288;22557;-79
2022/01/23 12:58:34;;;;;;;8.10;4.90;;;;;;;9.70;36.26;101843.80;105296;1287;22589;-81
2022/01/23 13:01:08;;;;;;;6.20;4.70;;;;;;;9.55;36.58;101844.40;105004;1288;22589;-82
2022/01/23 13:03:38;;;;;;;7.50;4.70;;;;;;;9.46;36.65;101842.83;104573;1291;24276;-84
2022/01/23 13:06:07;;;;;;;5.60;4.70;;;;;;;9.45;36.84;101841.94;104626;1291;24535;-81
2022/01/23 13:09:31;;;;;;;6.40;4.30;;;;;;;9.48;36.77;101847.96;104956;1291;24335;-81
2022/01/23 13:17:08;;;;;;;8.20;4.60;;;;;;;9.41;36.84;101863.66;105517;1285;23126;-81
2022/01/23 13:27:59;;;;;;;7.90;4.60;;;;;;;10.64;35.32;101857.99;106388;1273;24297;-81
2022/01/23 13:33:10;;;;;;;7.50;4.50;;;;;;;10.36;35.12;101867.07;106250;1279;24214;-79
2022/01/23 13:35:41;;;;;;;7.10;4.90;;;;;;;10.15;35.10;101869.37;105960;1278;22936;-82
2022/01/23 13:38:16;;;;;;;8.90;4.40;;;;;;;9.85;35.25;101871.33;105763;1278;22586;-82
2022/01/23 13:40:45;;;;;;;5.80;4.30;;;;;;;9.68;35.49;101867.70;106010;1279;22553;-79
2022/01/23 14:02:18;;;;;;;8.90;4.30;;;;;;;8.57;36.46;101883.15;106308;1273;22548;-82
2022/01/23 14:05:36;;;;;;;6.80;4.20;;;;;;;8.83;36.14;101880.59;106674;1273;25281;-82
2022/01/23 14:08:05;;;;;;;7.70;4.40;;;;;;;8.93;36.11;101877.80;106383;1274;24465;-81
2022/01/23 14:10:38;;;;;;;8.60;4.70;;;;;;;8.84;36.23;101875.35;106125;1273;22660;-78
2022/01/23 14:17:16;;;;;;;7.70;4.70;;;;;;;8.29;36.20;101882.12;106114;1273;22830;-79
2022/01/23 14:20:03;;;;;;;7.40;4.90;;;;;;;8.03;36.29;101889.91;106760;1273;22719;-84
2022/01/23 14:22:39;;;;;;;9.70;5.20;;;;;;;7.76;36.73;101890.95;106659;1273;25382;-82
2022/01/23 14:25:12;;;;;;;11.20;5.10;;;;;;;7.49;36.95;101893.04;106918;1274;24076;-82
2022/01/23 14:27:42;;;;;;;13.80;6.10;;;;;;;7.17;37.16;101895.12;106217;1274;23950;-86
2022/01/23 14:30:15;;;;;;;10.00;5.00;;;;;;;6.95;37.66;101902.71;106167;1274;24209;-82
2022/01/23 14:32:53;;;;;;;8.60;5.40;;;;;;;6.78;37.84;101907.46;105805;1279;22551;-83
2022/01/23 14:35:24;;;;;;;10.40;5.50;;;;;;;6.59;38.01;101914.94;106125;1279;25382;-83
2022/01/23 14:38:10;;;;;;;8.40;5.30;;;;;;;6.40;38.23;101914.86;106178;1279;25471;-80
2022/01/23 14:44:17;;;;;;;7.50;4.20;;;;;;;5.91;39.33;101916.87;106213;1284;25524;-86
2022/01/23 14:46:50;;;;;;;6.40;4.50;;;;;;;5.72;39.44;101917.27;106278;1284;22865;-82
2022/01/23 14:50:30;;;;;;;7.10;4.20;;;;;;;5.42;39.90;101919.52;106741;1281;22818;-86
2022/01/23 14:53:03;;;;;;;7.40;4.70;;;;;;;5.25;40.23;101917.66;107292;1279;22513;-89
2022/01/23 14:55:57;;;;;;;7.00;4.50;;;;;;;5.11;40.23;101918.54;106365;1279;22563;-85
2022/01/23 14:58:25;;;;;;;5.70;4.10;;;;;;;4.94;40.56;101920.84;105965;1279;24997;-81
2022/01/23 15:00:56;;;;;;;9.80;4.90;;;;;;;4.74;40.98;101919.20;105827;1279;24212;-85
2022/01/23 15:03:27;;;;;;;7.40;4.50;;;;;;;4.51;41.10;101921.13;105810;1279;23426;-87
2022/01/23 15:06:00;;;;;;;8.30;4.80;;;;;;;4.36;41.41;101924.33;105861;1279;22847;-86
2022/01/23 15:08:29;;;;;;;7.60;4.30;;;;;;;4.24;41.58;101921.04;105362;1279;22694;-84
2022/01/23 15:10:59;;;;;;;8.00;4.90;;;;;;;4.13;42.04;101922.20;105963;1279;22539;-85
2022/01/23 15:13:30;;;;;;;8.20;5.20;;;;;;;3.91;41.80;101920.02;105722;1284;22558;-87
2022/01/23 15:15:58;;;;;;;9.10;5.00;;;;;;;3.72;42.11;101920.60;105822;1284;24305;-85
2022/01/23 15:18:27;;;;;;;7.60;4.80;;;;;;;3.66;42.52;101923.52;105722;1285;25496;-87
2022/01/23 15:20:54;;;;;;;7.70;5.10;;;;;;;3.54;42.78;101928.55;105215;1284;22495;-85
2022/01/23 15:23:22;;;;;;;11.20;5.40;;;;;;;3.37;43.01;101933.02;105590;1284;24462;-85
2022/01/23 15:25:50;;;;;;;9.00;5.30;;;;;;;3.24;43.34;101935.57;105783;1284;24322;-87
2022/01/23 15:32:33;;;;;;;9.30;5.30;;;;;;;3.08;43.77;101942.34;106365;1273;25418;-84
2022/01/23 15:35:02;;;;;;;9.60;5.60;;;;;;;3.00;44.15;101941.94;106273;1275;22602;-87
2022/01/23 15:37:31;;;;;;;11.20;5.30;;;;;;;2.86;43.98;101940.27;106298;1273;25335;-85
2022/01/23 15:39:59;;;;;;;9.90;5.00;;;;;;;2.74;44.15;101941.75;106194;1274;26629;-82
2022/01/23 15:42:26;;;;;;;10.70;5.40;;;;;;;2.70;44.39;101939.82;106320;1273;23744;-81
2022/01/23 15:44:53;;;;;;;8.60;4.90;;;;;;;2.71;44.71;101945.28;105997;1274;22612;-83